createdAt,value
2019-05-09T00:04:34.988Z,10.9
2019-05-09T00:09:33.347Z,10.9
2019-05-09T00:14:27.497Z,10.9
2019-05-09T00:19:23.792Z,10.8
2019-05-09T00:24:20.071Z,9.8
2019-05-09T00:29:15.547Z,10.5
2019-05-09T00:34:14.153Z,10.5
2019-05-09T00:39:07.960Z,10.5
2019-05-09T00:44:04.211Z,10.2
2019-05-09T00:49:01.087Z,10.6
2019-05-09T00:53:57.039Z,10.3
2019-05-09T00:58:53.678Z,10.4
2019-05-09T01:03:49.442Z,10.4
2019-05-09T01:08:45.867Z,10.7
2019-05-09T01:13:43.420Z,10.2
2019-05-09T01:18:38.215Z,10.1
2019-05-09T01:23:38.005Z,10.2
2019-05-09T01:28:34.173Z,10.1
2019-05-09T01:33:30.218Z,10.6
2019-05-09T01:38:26.274Z,9.8
2019-05-09T01:43:24.352Z,10.5
2019-05-09T01:48:19.036Z,9.9
2019-05-09T01:53:15.038Z,9.9
2019-05-09T01:58:10.982Z,9.8
2019-05-09T02:03:07.117Z,9.9
2019-05-09T02:08:03.434Z,9.5
2019-05-09T02:12:59.688Z,9.8
2019-05-09T02:18:01.228Z,9.7
2019-05-09T02:22:51.446Z,10.3
2019-05-09T02:27:50.745Z,9.8
2019-05-09T02:32:46.924Z,9.7
2019-05-09T02:37:43.117Z,9.8
2019-05-09T02:42:39.892Z,9.6
2019-05-09T02:47:38.011Z,9.7
2019-05-09T02:52:31.351Z,9.6
2019-05-09T02:57:29.288Z,9.5
2019-05-09T03:02:23.455Z,9.5
2019-05-09T03:07:19.037Z,9.6
2019-05-09T03:12:25.887Z,9.5
2019-05-09T03:17:11.851Z,9.5
2019-05-09T03:22:08.702Z,9.3
2019-05-09T03:27:08.587Z,9.5
2019-05-09T03:32:03.916Z,9.3
2019-05-09T03:36:59.898Z,9.3
2019-05-09T03:41:57.375Z,9.9
2019-05-09T03:46:52.742Z,9.4
2019-05-09T03:51:49.015Z,9.3
2019-05-09T03:56:47.895Z,9.9
2019-05-09T04:01:42.189Z,9.3
2019-05-09T04:06:39.061Z,9.2
2019-05-09T04:11:34.544Z,9.3
2019-05-09T04:16:31.121Z,9.3
2019-05-09T04:21:27.934Z,9.4
2019-05-09T04:26:27.647Z,9.4
2019-05-09T04:31:22.887Z,9.4
2019-05-09T04:36:18.363Z,9.8
2019-05-09T04:41:16.219Z,9.2
2019-05-09T04:46:12.803Z,9.2
2019-05-09T04:51:07.795Z,9.9
2019-05-09T04:56:02.295Z,9.3
2019-05-09T05:00:58.295Z,9.4
2019-05-09T05:05:54.581Z,9.4
2019-05-09T05:10:50.512Z,9.5
2019-05-09T05:15:47.474Z,9.5
2019-05-09T05:20:42.670Z,9.2
2019-05-09T05:25:42.460Z,9.6
2019-05-09T05:30:38.097Z,9.6
2019-05-09T05:35:34.427Z,9.6
2019-05-09T05:40:32.689Z,9.8
2019-05-09T05:45:28.251Z,9.9
2019-05-09T05:50:22.747Z,10.4
2019-05-09T05:55:19.397Z,10.5
2019-05-09T06:00:17.991Z,10.6
2019-05-09T06:05:12.021Z,10.2
2019-05-09T06:10:08.409Z,10.2
2019-05-09T06:15:04.321Z,10.4
2019-05-09T06:20:00.052Z,11
2019-05-09T06:25:00.324Z,10.9
2019-05-09T06:29:58.112Z,11.2
2019-05-09T06:34:52.696Z,10.8
2019-05-09T06:39:48.712Z,10.7
2019-05-09T06:44:44.851Z,11
2019-05-09T06:49:41.116Z,11.1
2019-05-09T06:54:41.066Z,11.1
2019-05-09T06:59:33.392Z,11.2
2019-05-09T07:04:29.809Z,11.3
2019-05-09T07:09:27.709Z,11.4
2019-05-09T07:14:28.448Z,11.4
2019-05-09T07:19:18.572Z,11.6
2019-05-09T07:24:18.597Z,11.7
2019-05-09T07:29:14.439Z,11.6
2019-05-09T07:34:10.772Z,11.8
2019-05-09T07:39:08.703Z,12.4
2019-05-09T07:44:03.802Z,11.9
2019-05-09T07:49:00.283Z,12.5
2019-05-09T07:53:58.556Z,12.1
2019-05-09T07:58:52.320Z,12.7
2019-05-09T08:03:49.067Z,12.3
2019-05-09T08:08:44.869Z,12.3
2019-05-09T08:13:41.195Z,12.9
2019-05-09T08:18:37.586Z,12.9
2019-05-09T08:23:33.219Z,13.1
2019-05-09T08:28:30.111Z,12.7
2019-05-09T08:33:28.681Z,12.8
2019-05-09T08:38:23.958Z,13.4
2019-05-09T08:43:20.448Z,13
2019-05-09T08:48:18.177Z,13.6
2019-05-09T08:53:12.203Z,13.6
2019-05-09T08:58:08.718Z,13.7
2019-05-09T09:03:07.682Z,11.7
2019-05-09T09:08:01.463Z,13.9
2019-05-09T09:12:58.150Z,14
2019-05-09T09:17:53.648Z,13.6
2019-05-09T09:22:50.148Z,14.3
2019-05-09T09:27:50.231Z,13.8
2019-05-09T09:32:42.867Z,13.9
2019-05-09T09:37:48.255Z,13.9
2019-05-09T09:42:39.277Z,14.5
2019-05-09T09:47:32.166Z,14
2019-05-09T09:52:30.749Z,14.1
2019-05-09T09:57:25.310Z,14.2
2019-05-09T10:02:20.012Z,14.1
2019-05-09T10:07:16.070Z,14.7
2019-05-09T10:12:12.484Z,14.7
2019-05-09T10:17:10.289Z,14.8
2019-05-09T10:22:04.677Z,14.9
2019-05-09T10:27:01.138Z,14.9
2019-05-09T10:31:57.936Z,15
2019-05-09T10:36:53.572Z,14.5
2019-05-09T10:41:49.637Z,15.1
2019-05-09T10:46:53.500Z,14.7
2019-05-09T10:51:42.353Z,15.2
2019-05-09T10:56:39.150Z,15.3
2019-05-09T11:01:38.084Z,15.3
2019-05-09T11:06:32.302Z,15.4
2019-05-09T11:11:29.010Z,15.4
2019-05-09T11:16:39.357Z,15
2019-05-09T11:21:21.854Z,15.3
2019-05-09T11:26:18.497Z,14.9
2019-05-09T11:31:14.714Z,15.6
2019-05-09T11:36:11.009Z,15.6
2019-05-09T11:41:08.256Z,15.6
2019-05-09T11:46:03.274Z,15.6
2019-05-09T11:50:59.620Z,15.6
2019-05-09T11:55:57.758Z,15.5
2019-05-09T12:00:52.258Z,15.5
2019-05-09T12:05:48.370Z,15.4
2019-05-09T12:10:44.092Z,15.4
2019-05-09T12:15:40.255Z,15.3
2019-05-09T12:20:40.265Z,15.3
2019-05-09T12:25:38.517Z,15.3
2019-05-09T12:30:32.352Z,15.3
2019-05-09T12:35:28.886Z,15.2
2019-05-09T12:40:25.506Z,15.2
2019-05-09T12:45:21.426Z,15.2
2019-05-09T12:50:18.670Z,15.2
2019-05-09T12:55:13.875Z,15.2
2019-05-09T13:00:14.456Z,14.4
2019-05-09T13:05:10.635Z,14.8
2019-05-09T13:10:08.911Z,15.4
2019-05-09T13:15:03.996Z,15.4
2019-05-09T13:20:00.727Z,14.9
2019-05-09T13:24:58.760Z,15
2019-05-09T13:29:52.836Z,15.5
2019-05-09T13:34:49.091Z,15.5
2019-05-09T13:39:47.424Z,15.4
2019-05-09T13:44:41.932Z,15.6
2019-05-09T13:49:39.587Z,15.8
2019-05-09T13:54:34.703Z,15.8
2019-05-09T13:59:31.226Z,15.8
2019-05-09T14:04:28.500Z,15.3
2019-05-09T14:09:22.049Z,15.3
2019-05-09T14:14:18.173Z,15.7
2019-05-09T14:19:40.338Z,15.7
2019-05-09T14:24:14.335Z,15.7
2019-05-09T14:29:06.506Z,15.6
2019-05-09T14:34:02.991Z,15.6
2019-05-09T14:38:58.978Z,14.8
2019-05-09T14:43:55.143Z,15.6
2019-05-09T14:48:51.658Z,15.6
2019-05-09T14:53:48.526Z,15.1
2019-05-09T14:58:43.630Z,14.9
2019-05-09T15:03:40.467Z,15.4
2019-05-09T15:08:38.159Z,15.4
2019-05-09T15:13:32.716Z,15.2
2019-05-09T15:18:29.047Z,15.3
2019-05-09T15:23:25.473Z,15.2
2019-05-09T15:28:21.787Z,15.2
2019-05-09T15:33:18.054Z,14.9
2019-05-09T15:38:15.266Z,15
2019-05-09T15:43:11.710Z,15
2019-05-09T15:48:08.010Z,15
2019-05-09T15:53:04.071Z,14.8
2019-05-09T15:58:00.593Z,14.9
2019-05-09T16:02:58.945Z,14.4
2019-05-09T16:07:52.984Z,14.6
2019-05-09T16:12:48.905Z,14.6
2019-05-09T16:17:48.113Z,14.5
2019-05-09T16:22:42.975Z,14.7
2019-05-09T16:27:38.827Z,14.6
2019-05-09T16:32:37.361Z,14.6
2019-05-09T16:37:52.156Z,14.6
2019-05-09T16:42:27.637Z,14.4
2019-05-09T16:47:23.095Z,14.5
2019-05-09T16:52:17.979Z,14.2
2019-05-09T16:57:13.893Z,14.2
2019-05-09T17:02:21.193Z,13.8
2019-05-09T17:07:08.353Z,14.3
2019-05-09T17:12:02.999Z,13.7
2019-05-09T17:16:59.944Z,14.2
2019-05-09T17:21:55.401Z,14.2
2019-05-09T17:26:51.570Z,14.1
2019-05-09T17:31:48.752Z,14
2019-05-09T17:36:44.269Z,14.1
2019-05-09T17:41:40.812Z,14.1
2019-05-09T17:46:38.461Z,14.1
2019-05-09T17:51:49.342Z,13.3
2019-05-09T17:56:50.825Z,14.1
2019-05-09T18:01:48.210Z,14
2019-05-09T18:06:43.208Z,13.8
2019-05-09T18:11:39.235Z,13.9
2019-05-09T18:16:38.671Z,13.4
2019-05-09T18:21:31.919Z,13.8
2019-05-09T18:26:28.441Z,13.7
2019-05-09T18:31:24.920Z,13.7
2019-05-09T18:36:20.851Z,13.7
2019-05-09T18:41:17.718Z,13.7
2019-05-09T18:46:12.857Z,13.7
2019-05-09T18:51:09.526Z,13.6
2019-05-09T18:56:05.721Z,13.6
2019-05-09T19:01:01.914Z,13.7
2019-05-09T19:05:58.365Z,13.5
2019-05-09T19:10:54.980Z,13.6
2019-05-09T19:15:51.766Z,13.2
2019-05-09T19:20:47.986Z,13.6
2019-05-09T19:25:44.334Z,13.6
2019-05-09T19:30:40.441Z,13.6
2019-05-09T19:35:36.619Z,13.6
2019-05-09T19:40:32.871Z,13.6
2019-05-09T19:45:29.002Z,13.3
2019-05-09T19:50:25.214Z,13.5
2019-05-09T19:55:21.475Z,13.2
2019-05-09T20:00:17.958Z,13.4
2019-05-09T20:05:13.781Z,13.2
2019-05-09T20:10:10.439Z,13.4
2019-05-09T20:15:07.339Z,12.9
2019-05-09T20:20:03.497Z,13.4
2019-05-09T20:24:59.218Z,13.3
2019-05-09T20:29:55.630Z,13.3
2019-05-09T20:34:52.616Z,12.7
2019-05-09T20:39:48.719Z,13.1
2019-05-09T20:44:45.028Z,13
2019-05-09T20:49:41.011Z,13.1
2019-05-09T20:54:37.432Z,12.1
2019-05-09T20:59:33.873Z,13.1
2019-05-09T21:04:30.142Z,13
2019-05-09T21:09:23.505Z,13
2019-05-09T21:14:19.874Z,13
2019-05-09T21:19:16.556Z,12.3
2019-05-09T21:24:12.825Z,12.9
2019-05-09T21:29:09.027Z,12.9
2019-05-09T21:34:05.238Z,12.8
2019-05-09T21:39:01.497Z,12.9
2019-05-09T21:43:57.547Z,12.9
2019-05-09T21:48:53.781Z,12.9
2019-05-09T21:53:50.203Z,12.9
2019-05-09T21:58:46.551Z,12.9
2019-05-09T22:03:42.494Z,12.9
2019-05-09T22:08:39.690Z,12.7
2019-05-09T22:13:35.665Z,12.8
2019-05-09T22:18:32.088Z,12.8
2019-05-09T22:23:28.417Z,12.8
2019-05-09T22:28:24.741Z,12.7
2019-05-09T22:33:21.363Z,12.2
2019-05-09T22:38:17.949Z,12.6
2019-05-09T22:43:14.452Z,12.6
2019-05-09T22:48:10.951Z,12.8
2019-05-09T22:53:07.621Z,12.6
2019-05-09T22:58:04.175Z,12.8
2019-05-09T23:03:00.796Z,12.3
2019-05-09T23:07:56.888Z,12.8
2019-05-09T23:12:53.426Z,12.2
2019-05-09T23:17:49.875Z,12.7
2019-05-09T23:22:46.347Z,12.6
2019-05-09T23:27:42.869Z,12.4
2019-05-09T23:32:39.477Z,12.7
2019-05-09T23:37:35.576Z,12.6
2019-05-09T23:42:32.071Z,12.7
2019-05-09T23:47:28.620Z,12.6
2019-05-09T23:52:25.121Z,12.7
2019-05-09T23:57:21.619Z,12.8
